EW9829 Weather Reports


Display with metric or nautical units.
time (UTC)temp
F
wind
direction
speed
MPH
gust
MPH
rain 1hr
in
rain 24hr
in
rain mn
in
humidity
%
barometer
mb
20210922155659 75 45 5.0 11.0 0.00 0.15 0.00 54 1023.2
20210922152642 75 68 3.0 10.0 0.00 0.15 0.00 58 1023.1
20210922145627 72 45 4.0 7.0 0.00 0.15 0.00 62 1023.3
20210922142612 72 112 4.0 8.0 0.00 0.15 0.00 68 1023.2
20210922135559 70 22 3.0 7.0 0.00 0.15 0.00 72 1022.8
20210922132526 70 135 3.0 7.0 0.00 0.15 0.00 70 1022.7
20210922125510 68 338 3.0 7.0 0.00 0.15 0.00 72 1022.4
20210922122453 68 202 3.0 7.0 0.00 0.15 0.00 75 1022.1
20210922115443 69 0 4.0 7.0 0.00 0.15 0.00 74 1021.8
20210922112441 69 0 4.0 6.0 0.00 0.15 0.00 75 1021.5
20210922105442 71 112 2.0 9.0 0.00 0.15 0.00 72 1021.6
20210922102442 71 202 3.0 8.0 0.00 0.15 0.00 72 1021.4
20210922095438 72 22 4.0 6.0 0.00 0.15 0.00 79 1021.2
20210922092420 73 112 4.0 7.0 0.00 0.15 0.00 79 1020.9
20210922085405 74 45 2.0 6.0 0.00 0.15 0.00 80 1020.6
20210922082352 74 90 3.0 6.0 0.00 0.15 0.00 81 1020.1
20210922075338 74 338 2.0 4.0 0.00 0.15 0.00 85 1019.7
20210922072330 75 22 2.0 4.0 0.00 0.15 0.00 83 1019.3
20210922065300 75 22 3.0 5.0 0.00 0.15 0.00 83 1019.3
20210922062247 76 292 1.0 4.0 0.00 0.15 0.00 83 1019.4
20210922055230 76 292 2.0 4.0 0.00 0.15 0.00 85 1018.9
20210922052215 76 68 2.0 4.0 0.00 0.15 0.00 88 1018.5
20210922045201 77 45 3.0 5.0 0.00 0.15 0.15 88 1018.5
20210922042140 77 315 2.0 5.0 0.00 0.15 0.15 89 1018.6
20210922035124 77 202 3.0 5.0 0.00 0.15 0.15 93 1018.5
20210922032112 77 0 2.0 3.0 0.00 0.15 0.15 97 1017.7
20210922025056 77 248 1.0 2.0 0.00 0.15 0.15 99 1017.0
20210922022040 76 270 0.0 3.0 0.00 0.15 0.15 99 1016.7
20210922015027 76 90 2.0 5.0 0.00 0.15 0.15 99 1016.8
20210922012010 76 270 4.0 6.0 0.14 0.15 0.15 99 1016.3
20210922005009 76 68 2.0 10.0 0.15 0.15 0.15 99 1015.9
20210922002010 82 68 4.0 6.0 0.01 0.01 0.02 88 1015.3
20210921235010 90 270 0.0 0.0 0.00 0.00 0.00 66 1014.2
20210921231956 92 270 0.0 1.0 0.00 0.00 0.00 60 1014.2
20210921224854 92 0 0.0 3.0 0.00 0.00 0.00 56 1014.0
20210921221839 93 180 2.0 3.0 0.00 0.00 0.00 57 1014.1
20210921214827 94 202 0.0 4.0 0.00 0.00 0.00 54 1014.4
20210921211809 93 22 3.0 5.0 0.00 0.00 0.00 55 1014.4
20210921204754 94 248 3.0 5.0 0.00 0.00 0.00 58 1014.7
20210921201742 94 90 1.0 7.0 0.00 0.00 0.00 59 1015.2
20210921194739 94 68 3.0 5.0 0.00 0.00 0.00 62 1015.5
20210921191742 93 158 2.0 4.0 0.00 0.00 0.00 64 1015.9
20210921184737 94 270 3.0 8.0 0.00 0.00 0.00 64 1016.2
20210921181723 92 270 1.0 8.0 0.00 0.00 0.00 68 1016.6
20210921174708 93 112 4.0 6.0 0.00 0.00 0.00 68 1016.6
20210921171655 93 135 3.0 4.0 0.00 0.00 0.00 66 1016.9
20210921164638 91 68 2.0 5.0 0.00 0.00 0.00 73 1017.0
20210921161625 87 270 1.0 4.0 0.00 0.00 0.00 81 1017.0